Time;durP1;ratioP1;P1;durP2;ratioP2;P2;SDS_P1;SDS_P2;PMS_P1;PMS_P2;Temp;Humidity;BMP_temperature;BMP_pressure;BME280_temperature;BME280_humidity;BME280_pressure;Samples;Min_cycle;Max_cycle;Signal;HPM_P1;HPM_P2
2022/02/26 00:00:08;;;;;;;0.50;0.50;;;1.90;99.90;;;;;;5034589;28;20449;-83
2022/02/26 00:02:35;;;;;;;0.30;0.30;;;1.80;99.90;;;;;;5034187;28;20455;-83
2022/02/26 00:05:03;;;;;;;0.30;0.30;;;1.80;99.90;;;;;;5034106;28;20482;-83
2022/02/26 00:07:30;;;;;;;0.30;0.20;;;1.70;99.90;;;;;;5034046;28;20454;-83
2022/02/26 00:09:57;;;;;;;0.30;0.20;;;1.70;99.90;;;;;;5034135;28;20455;-83
2022/02/26 00:12:23;;;;;;;0.30;0.30;;;1.70;99.90;;;;;;5034147;28;20878;-83
2022/02/26 00:14:50;;;;;;;0.30;0.30;;;1.70;99.90;;;;;;5034109;28;20453;-83
2022/02/26 00:17:17;;;;;;;0.30;0.20;;;1.70;99.90;;;;;;5033788;28;20458;-83
2022/02/26 00:19:44;;;;;;;0.40;0.40;;;1.70;99.90;;;;;;5033675;28;20461;-83
2022/02/26 00:22:12;;;;;;;0.30;0.20;;;1.60;99.90;;;;;;5033929;28;20796;-83
2022/02/26 00:24:39;;;;;;;0.40;0.40;;;1.60;99.90;;;;;;5033497;28;20479;-83
2022/02/26 00:27:05;;;;;;;0.30;0.20;;;1.60;99.90;;;;;;5033801;28;20435;-83
2022/02/26 00:29:34;;;;;;;1.27;1.17;;;1.50;99.90;;;;;;5033888;28;20839;-83
2022/02/26 00:32:02;;;;;;;0.30;0.20;;;1.50;99.90;;;;;;5033524;28;20486;-83
2022/02/26 00:34:28;;;;;;;0.30;0.30;;;1.50;99.90;;;;;;5033722;28;20446;-83
2022/02/26 00:36:55;;;;;;;0.40;0.30;;;1.60;99.90;;;;;;5033715;28;20433;-83
2022/02/26 00:39:23;;;;;;;0.30;0.20;;;1.60;99.90;;;;;;5033311;28;21004;-83
2022/02/26 00:41:50;;;;;;;0.30;0.30;;;1.70;99.90;;;;;;5033865;28;20442;-83
2022/02/26 00:44:17;;;;;;;0.30;0.30;;;1.70;99.90;;;;;;5033505;28;20821;-83
2022/02/26 00:46:45;;;;;;;0.30;0.20;;;1.80;99.90;;;;;;5033655;28;20451;-83
2022/02/26 00:51:56;;;;;;;0.30;0.30;;;2.00;99.90;;;;;;5034010;28;20406;-83
2022/02/26 00:54:24;;;;;;;0.30;0.20;;;2.00;99.90;;;;;;5033608;28;20453;-83
2022/02/26 00:56:51;;;;;;;0.60;0.60;;;2.10;99.90;;;;;;5033405;28;20450;-83
2022/02/26 00:59:18;;;;;;;0.30;0.30;;;2.10;99.90;;;;;;5033160;28;20458;-83
2022/02/26 01:01:45;;;;;;;0.30;0.20;;;2.20;99.90;;;;;;5033027;28;20450;-83
2022/02/26 01:04:11;;;;;;;0.30;0.20;;;2.30;99.90;;;;;;5033390;28;20443;-83
2022/02/26 01:06:38;;;;;;;0.30;0.20;;;2.30;99.90;;;;;;5033277;28;20538;-82
2022/02/26 01:09:06;;;;;;;0.30;0.20;;;2.30;99.90;;;;;;5033261;28;20467;-83
2022/02/26 01:11:34;;;;;;;0.30;0.20;;;2.30;99.90;;;;;;5033289;28;20454;-83
2022/02/26 01:14:01;;;;;;;0.30;0.30;;;2.20;99.90;;;;;;5033309;28;20450;-83
2022/02/26 01:16:28;;;;;;;0.30;0.20;;;2.20;99.90;;;;;;5033223;28;20453;-83
2022/02/26 01:18:55;;;;;;;0.30;0.20;;;2.20;99.90;;;;;;5033151;28;20474;-83
2022/02/26 01:21:22;;;;;;;0.70;0.70;;;2.20;99.90;;;;;;5033241;28;20462;-83
2022/02/26 01:23:49;;;;;;;0.30;0.20;;;2.30;99.90;;;;;;5033413;28;20450;-83
2022/02/26 01:26:16;;;;;;;0.30;0.20;;;2.30;99.90;;;;;;5033081;28;20478;-83
2022/02/26 01:28:44;;;;;;;0.30;0.30;;;2.30;99.90;;;;;;5033203;28;20470;-83
2022/02/26 01:31:11;;;;;;;0.30;0.30;;;2.40;99.90;;;;;;5036995;28;20485;-83
2022/02/26 01:33:38;;;;;;;0.30;0.20;;;2.40;99.90;;;;;;5037236;28;20435;-83
2022/02/26 01:36:06;;;;;;;0.30;0.20;;;2.40;99.90;;;;;;5037147;28;20822;-83
2022/02/26 01:38:35;;;;;;;0.30;0.30;;;2.50;99.90;;;;;;5036902;28;20470;-83
2022/02/26 01:41:02;;;;;;;0.30;0.20;;;2.50;99.90;;;;;;5037247;28;20447;-83
2022/02/26 01:43:29;;;;;;;0.30;0.20;;;2.50;99.90;;;;;;5036933;28;20457;-83
2022/02/26 01:45:57;;;;;;;0.30;0.20;;;2.60;99.90;;;;;;5036797;28;20482;-83
2022/02/26 01:48:24;;;;;;;1.00;0.50;;;2.60;99.90;;;;;;5037668;28;20481;-83
2022/02/26 01:50:50;;;;;;;0.30;0.20;;;2.50;99.90;;;;;;5036825;28;20502;-83
2022/02/26 01:53:17;;;;;;;0.40;0.33;;;2.60;99.90;;;;;;5036681;28;20450;-83
2022/02/26 01:55:44;;;;;;;0.30;0.20;;;2.60;99.90;;;;;;5036504;28;20526;-83
2022/02/26 01:58:11;;;;;;;0.30;0.20;;;2.60;99.90;;;;;;5036621;28;20470;-83
2022/02/26 02:00:38;;;;;;;0.40;0.33;;;2.60;99.90;;;;;;5036774;28;20450;-83
2022/02/26 02:03:06;;;;;;;0.30;0.30;;;2.60;99.90;;;;;;5036317;28;20437;-83
2022/02/26 02:05:33;;;;;;;0.30;0.30;;;2.60;99.90;;;;;;5036418;28;20577;-83
2022/02/26 02:08:00;;;;;;;0.30;0.20;;;2.60;99.90;;;;;;5036688;28;20458;-83
2022/02/26 02:10:27;;;;;;;0.40;0.33;;;2.60;99.90;;;;;;5036635;28;20443;-83
2022/02/26 02:12:53;;;;;;;0.30;0.30;;;2.60;99.90;;;;;;5036205;28;20942;-83
2022/02/26 02:15:32;;;;;;;0.30;0.20;;;2.50;99.90;;;;;;5036323;28;20451;-83
2022/02/26 02:17:59;;;;;;;0.30;0.20;;;2.50;99.90;;;;;;5036035;28;21016;-82
2022/02/26 02:20:28;;;;;;;0.70;0.50;;;2.40;99.90;;;;;;5035976;28;20969;-83
2022/02/26 02:22:56;;;;;;;0.30;0.27;;;2.30;99.90;;;;;;5036260;28;20521;-83
2022/02/26 02:25:27;;;;;;;0.30;0.30;;;2.30;99.90;;;;;;5036000;28;20470;-83
2022/02/26 02:27:54;;;;;;;0.30;0.30;;;2.30;99.90;;;;;;5036062;28;20470;-83
2022/02/26 02:30:21;;;;;;;0.30;0.30;;;2.30;99.90;;;;;;5035827;28;20926;-83
2022/02/26 02:32:48;;;;;;;0.30;0.20;;;2.30;99.90;;;;;;5035617;28;20474;-83
2022/02/26 02:35:24;;;;;;;0.30;0.30;;;2.40;99.90;;;;;;5035999;28;20476;-83
2022/02/26 02:37:51;;;;;;;0.30;0.30;;;2.40;99.90;;;;;;5035837;28;20470;-83
2022/02/26 02:40:19;;;;;;;0.30;0.20;;;2.50;99.90;;;;;;5035316;28;20443;-83
2022/02/26 02:42:46;;;;;;;0.30;0.30;;;2.50;99.90;;;;;;5035092;28;20450;-83
2022/02/26 02:45:12;;;;;;;0.30;0.20;;;2.50;99.90;;;;;;5035627;28;20493;-83
2022/02/26 02:47:39;;;;;;;0.30;0.20;;;2.50;99.90;;;;;;5035767;28;20467;-83
2022/02/26 02:50:07;;;;;;;0.30;0.20;;;2.50;99.90;;;;;;5035769;28;20459;-82
2022/02/26 02:52:34;;;;;;;0.30;0.30;;;2.50;99.90;;;;;;5036312;28;20451;-83
2022/02/26 02:55:01;;;;;;;0.30;0.20;;;2.60;99.90;;;;;;5035608;28;20455;-83
2022/02/26 02:57:29;;;;;;;0.30;0.20;;;2.60;99.90;;;;;;5035545;28;20475;-83
2022/02/26 02:59:56;;;;;;;0.47;0.47;;;2.60;99.90;;;;;;5035213;28;20457;-83
2022/02/26 03:02:22;;;;;;;0.30;0.30;;;2.60;99.90;;;;;;5035113;28;20454;-83
2022/02/26 03:04:49;;;;;;;0.30;0.30;;;2.60;99.90;;;;;;5036063;28;20458;-84
2022/02/26 03:07:17;;;;;;;0.30;0.30;;;2.60;99.90;;;;;;5036388;28;20833;-83
2022/02/26 03:09:44;;;;;;;0.30;0.20;;;2.70;99.90;;;;;;5036588;28;20453;-83
2022/02/26 03:12:11;;;;;;;0.30;0.30;;;2.60;99.90;;;;;;5035850;28;20450;-78
2022/02/26 03:14:39;;;;;;;0.30;0.30;;;2.60;99.90;;;;;;5035142;28;20447;-78
2022/02/26 03:17:06;;;;;;;0.30;0.20;;;2.60;99.90;;;;;;5034989;28;20474;-79
2022/02/26 03:19:32;;;;;;;0.30;0.30;;;2.60;99.90;;;;;;5035845;28;20474;-78
2022/02/26 03:21:59;;;;;;;0.30;0.20;;;2.60;99.90;;;;;;5034705;28;20962;-79
2022/02/26 03:24:26;;;;;;;0.30;0.20;;;2.60;99.90;;;;;;5035124;28;20455;-78
2022/02/26 03:26:56;;;;;;;0.30;0.20;;;2.60;99.90;;;;;;5034739;28;20478;-78
2022/02/26 03:29:23;;;;;;;0.40;0.40;;;2.60;99.90;;;;;;5034816;28;20463;-78
2022/02/26 03:31:52;;;;;;;0.30;0.30;;;2.60;99.90;;;;;;5034273;28;21009;-78
2022/02/26 03:34:20;;;;;;;0.30;0.30;;;2.60;99.90;;;;;;5034778;28;20443;-78
2022/02/26 03:36:48;;;;;;;0.40;0.40;;;2.60;99.90;;;;;;5034696;28;20486;-79
2022/02/26 03:39:15;;;;;;;0.30;0.30;;;2.60;99.90;;;;;;5034599;28;20463;-79
2022/02/26 03:41:42;;;;;;;0.30;0.30;;;2.60;99.90;;;;;;5034603;28;20446;-79
2022/02/26 03:44:09;;;;;;;0.30;0.30;;;2.60;99.90;;;;;;5034352;28;20430;-78
2022/02/26 03:46:36;;;;;;;0.30;0.30;;;2.60;99.90;;;;;;5034239;28;20475;-78
2022/02/26 03:49:05;;;;;;;0.53;0.30;;;2.60;99.90;;;;;;5034059;28;21016;-79
2022/02/26 03:51:32;;;;;;;0.30;0.30;;;2.60;99.90;;;;;;5034165;28;20465;-78
2022/02/26 03:53:59;;;;;;;0.30;0.30;;;2.50;99.90;;;;;;5034201;28;20455;-79
2022/02/26 03:56:27;;;;;;;0.30;0.20;;;2.50;99.90;;;;;;5034334;28;20473;-78
2022/02/26 03:58:54;;;;;;;0.30;0.20;;;2.50;99.90;;;;;;5034222;28;20474;-78
2022/02/26 04:01:21;;;;;;;1.53;0.37;;;2.40;99.90;;;;;;5034192;28;20446;-79
2022/02/26 04:03:48;;;;;;;0.30;0.27;;;2.50;99.90;;;;;;5034210;28;20457;-78
2022/02/26 04:06:16;;;;;;;0.30;0.30;;;2.50;99.90;;;;;;5034087;28;20475;-79
2022/02/26 04:08:43;;;;;;;0.30;0.20;;;2.50;99.90;;;;;;5034387;28;20471;-79
2022/02/26 04:11:10;;;;;;;0.40;0.33;;;2.50;99.90;;;;;;5034047;28;20457;-79
2022/02/26 04:13:37;;;;;;;0.30;0.30;;;2.50;99.90;;;;;;5034065;28;20451;-78
2022/02/26 04:16:04;;;;;;;0.30;0.20;;;2.50;99.90;;;;;;5033979;28;20461;-78
2022/02/26 04:18:31;;;;;;;0.30;0.20;;;2.40;99.90;;;;;;5033564;28;20558;-78
2022/02/26 04:20:58;;;;;;;0.30;0.30;;;2.30;99.90;;;;;;5033898;28;20450;-78
2022/02/26 04:23:26;;;;;;;5.30;1.13;;;2.10;99.90;;;;;;5033837;28;20446;-78
2022/02/26 04:25:53;;;;;;;0.30;0.30;;;2.00;99.90;;;;;;5033740;28;20490;-78
2022/02/26 04:28:20;;;;;;;0.30;0.30;;;2.00;99.90;;;;;;5033680;28;20466;-79
2022/02/26 04:30:48;;;;;;;0.30;0.30;;;1.90;99.90;;;;;;5033571;28;20880;-79
2022/02/26 04:33:16;;;;;;;0.30;0.30;;;1.90;99.90;;;;;;5033744;28;20439;-78
2022/02/26 04:35:43;;;;;;;0.73;0.33;;;1.90;99.90;;;;;;5033574;28;20447;-79
2022/02/26 04:38:10;;;;;;;0.30;0.30;;;1.80;99.90;;;;;;5033244;28;20474;-78
2022/02/26 04:40:38;;;;;;;0.30;0.30;;;1.80;99.90;;;;;;5033625;28;20450;-78
2022/02/26 04:43:05;;;;;;;0.30;0.20;;;1.80;99.90;;;;;;5033555;28;20453;-78
2022/02/26 04:45:31;;;;;;;0.30;0.20;;;1.90;99.90;;;;;;5033667;28;20491;-78
2022/02/26 04:47:58;;;;;;;0.30;0.20;;;1.80;99.90;;;;;;5033210;28;20451;-78
2022/02/26 04:50:25;;;;;;;0.30;0.20;;;1.90;99.90;;;;;;5033549;28;20447;-78
2022/02/26 04:52:52;;;;;;;0.40;0.40;;;1.90;99.90;;;;;;5033414;28;20447;-78
2022/02/26 04:55:18;;;;;;;0.30;0.30;;;1.90;99.90;;;;;;5033420;28;20454;-78
2022/02/26 04:57:48;;;;;;;0.30;0.20;;;2.00;99.90;;;;;;5033316;28;20470;-78
2022/02/26 05:00:15;;;;;;;0.30;0.30;;;2.00;99.90;;;;;;5033343;28;20446;-78
2022/02/26 05:02:42;;;;;;;0.30;0.20;;;2.10;99.90;;;;;;5033323;28;20446;-78
2022/02/26 05:05:10;;;;;;;2.43;0.50;;;2.10;99.90;;;;;;5032500;28;20455;-79
2022/02/26 05:07:36;;;;;;;0.30;0.20;;;2.10;99.90;;;;;;5032822;28;20486;-79
2022/02/26 05:10:04;;;;;;;0.80;0.37;;;2.10;99.90;;;;;;5032968;28;20455;-78
2022/02/26 05:12:31;;;;;;;0.30;0.30;;;2.10;99.90;;;;;;5033245;28;20446;-78
2022/02/26 05:14:59;;;;;;;0.50;0.40;;;2.10;99.90;;;;;;5032964;28;20966;-78
2022/02/26 05:17:26;;;;;;;0.30;0.20;;;2.10;99.90;;;;;;5032860;28;20463;-78
2022/02/26 05:19:52;;;;;;;0.30;0.30;;;2.10;99.90;;;;;;5033207;28;20441;-78
2022/02/26 05:22:19;;;;;;;0.40;0.30;;;2.00;99.90;;;;;;5032892;28;20445;-78
2022/02/26 05:24:46;;;;;;;0.30;0.30;;;2.10;99.90;;;;;;5033176;28;20811;-78
2022/02/26 05:27:13;;;;;;;0.30;0.30;;;2.00;99.90;;;;;;5033287;28;20505;-81
2022/02/26 05:29:40;;;;;;;0.30;0.30;;;2.00;99.90;;;;;;5033076;28;20469;-82
2022/02/26 05:32:09;;;;;;;0.30;0.30;;;2.00;99.90;;;;;;5032863;28;20998;-79
2022/02/26 05:34:36;;;;;;;0.40;0.40;;;1.90;99.90;;;;;;5033072;28;20446;-78
2022/02/26 05:37:02;;;;;;;0.30;0.30;;;1.80;99.90;;;;;;5032934;28;20446;-81
2022/02/26 05:39:29;;;;;;;0.40;0.40;;;1.80;99.90;;;;;;5032896;28;20815;-81
2022/02/26 05:41:57;;;;;;;0.30;0.30;;;1.70;99.90;;;;;;5032986;28;20446;-83
2022/02/26 05:44:25;;;;;;;0.33;0.33;;;1.70;99.90;;;;;;5033663;28;20565;-83
2022/02/26 05:46:52;;;;;;;0.30;0.20;;;1.70;99.90;;;;;;5033329;28;20842;-83
2022/02/26 05:49:20;;;;;;;0.30;0.20;;;1.70;99.90;;;;;;5032902;28;20485;-83
2022/02/26 05:51:47;;;;;;;0.30;0.20;;;1.70;99.90;;;;;;5033327;28;20442;-84
2022/02/26 05:54:14;;;;;;;0.30;0.30;;;1.70;99.90;;;;;;5032758;28;20450;-84
2022/02/26 05:56:41;;;;;;;0.30;0.20;;;1.80;99.90;;;;;;5032805;28;20512;-84
2022/02/26 05:59:08;;;;;;;0.80;0.40;;;1.80;99.90;;;;;;5032508;28;20792;-82
2022/02/26 06:01:35;;;;;;;0.30;0.30;;;1.80;99.90;;;;;;5032796;28;20528;-78
2022/02/26 06:04:02;;;;;;;1.37;1.27;;;1.80;99.90;;;;;;5032804;28;20455;-78
2022/02/26 06:06:30;;;;;;;0.30;0.30;;;1.80;99.90;;;;;;5033125;28;20482;-81
2022/02/26 06:08:57;;;;;;;0.30;0.20;;;1.90;99.90;;;;;;5033002;28;20482;-83
2022/02/26 06:11:24;;;;;;;0.47;0.47;;;1.90;99.90;;;;;;5032853;28;20462;-83
2022/02/26 06:13:51;;;;;;;0.53;0.53;;;2.00;99.90;;;;;;5032413;28;20961;-79
2022/02/26 06:16:18;;;;;;;0.30;0.30;;;2.00;99.90;;;;;;5034694;28;20942;-81
2022/02/26 06:18:45;;;;;;;0.30;0.27;;;2.10;99.90;;;;;;5036131;28;20463;-81
2022/02/26 06:21:12;;;;;;;0.30;0.20;;;2.10;99.90;;;;;;5036172;28;20446;-81
2022/02/26 06:23:42;;;;;;;0.30;0.27;;;2.00;99.90;;;;;;5035857;28;20451;-83
2022/02/26 06:26:12;;;;;;;0.57;0.53;;;2.10;99.90;;;;;;5035960;28;20481;-83
2022/02/26 06:28:39;;;;;;;0.30;0.30;;;2.10;99.90;;;;;;5036002;28;20987;-78
2022/02/26 06:31:06;;;;;;;0.30;0.20;;;2.10;99.90;;;;;;5035698;28;20489;-81
2022/02/26 06:33:42;;;;;;;0.30;0.27;;;2.20;99.90;;;;;;5035960;28;20431;-83
2022/02/26 06:36:09;;;;;;;0.30;0.20;;;2.20;99.90;;;;;;5035867;28;20869;-83
2022/02/26 06:38:36;;;;;;;0.30;0.30;;;2.20;99.90;;;;;;5035974;28;20481;-78
2022/02/26 06:41:04;;;;;;;0.67;0.67;;;2.20;99.90;;;;;;5035500;28;20954;-81
2022/02/26 06:43:31;;;;;;;0.30;0.30;;;2.30;99.90;;;;;;5035998;28;20464;-83
2022/02/26 06:45:58;;;;;;;0.40;0.40;;;2.30;99.90;;;;;;5035635;28;20435;-82
2022/02/26 06:48:26;;;;;;;0.30;0.30;;;2.40;99.90;;;;;;5035625;28;20493;-83
2022/02/26 06:50:53;;;;;;;0.30;0.20;;;2.40;99.90;;;;;;5035321;28;20450;-83
2022/02/26 06:53:21;;;;;;;0.30;0.30;;;2.40;99.90;;;;;;5017850;28;20490;-83
2022/02/26 06:55:48;;;;;;;0.30;0.30;;;2.50;99.90;;;;;;5035384;28;20455;-81
2022/02/26 06:58:16;;;;;;;0.30;0.30;;;2.50;99.90;;;;;;5035359;28;20470;-78
2022/02/26 07:00:43;;;;;;;0.30;0.30;;;2.60;99.90;;;;;;5035099;28;20454;-78
2022/02/26 07:03:10;;;;;;;0.30;0.30;;;2.60;99.90;;;;;;5035081;28;20450;-83
2022/02/26 07:05:36;;;;;;;0.73;0.40;;;2.70;99.90;;;;;;5035550;28;20513;-78
2022/02/26 07:08:03;;;;;;;0.30;0.20;;;2.70;99.90;;;;;;5034898;28;20494;-81
2022/02/26 07:10:30;;;;;;;0.30;0.20;;;2.70;99.90;;;;;;5035253;28;20442;-82
2022/02/26 07:12:57;;;;;;;0.30;0.30;;;2.70;99.90;;;;;;5035688;28;20450;-82
2022/02/26 07:15:25;;;;;;;0.30;0.30;;;2.80;99.90;;;;;;5035140;28;20451;-78
2022/02/26 07:17:52;;;;;;;0.30;0.23;;;2.90;99.90;;;;;;5034749;28;20978;-79
2022/02/26 07:20:19;;;;;;;0.30;0.20;;;2.90;99.90;;;;;;5035077;28;20446;-79
2022/02/26 07:22:45;;;;;;;0.40;0.37;;;3.00;99.90;;;;;;5034685;28;20451;-79
2022/02/26 07:25:12;;;;;;;0.30;0.30;;;3.00;99.90;;;;;;5035132;28;20455;-79
2022/02/26 07:27:39;;;;;;;0.30;0.30;;;3.00;99.90;;;;;;5034251;28;20482;-79
2022/02/26 07:30:07;;;;;;;0.30;0.30;;;3.00;99.90;;;;;;5034867;28;20445;-79
2022/02/26 07:32:36;;;;;;;0.30;0.30;;;3.00;99.90;;;;;;5034670;28;20478;-79
2022/02/26 07:35:04;;;;;;;0.30;0.30;;;3.00;99.90;;;;;;5034518;28;20438;-79
2022/02/26 07:37:31;;;;;;;0.30;0.20;;;3.10;99.90;;;;;;5034724;28;20463;-77
2022/02/26 07:39:57;;;;;;;0.30;0.20;;;3.10;99.90;;;;;;5034788;28;20411;-79
2022/02/26 07:42:26;;;;;;;0.30;0.20;;;3.10;99.90;;;;;;5034669;28;20431;-79
2022/02/26 07:44:53;;;;;;;0.53;0.53;;;3.20;99.90;;;;;;5034402;28;20416;-79
2022/02/26 07:47:20;;;;;;;0.30;0.30;;;3.20;99.90;;;;;;5034117;28;20838;-79
2022/02/26 07:49:48;;;;;;;0.30;0.30;;;3.30;99.90;;;;;;5034568;28;20777;-79
2022/02/26 07:52:15;;;;;;;0.60;0.30;;;3.30;99.90;;;;;;5034158;28;20442;-79
2022/02/26 07:54:42;;;;;;;0.30;0.30;;;3.30;99.90;;;;;;5034418;28;20438;-79
2022/02/26 07:57:09;;;;;;;0.30;0.20;;;3.40;99.90;;;;;;5034301;28;20434;-79
2022/02/26 07:59:36;;;;;;;0.30;0.30;;;3.50;99.90;;;;;;5034350;28;20439;-79
2022/02/26 08:02:03;;;;;;;0.30;0.30;;;3.60;99.90;;;;;;5034016;28;20927;-79
2022/02/26 08:04:30;;;;;;;0.30;0.30;;;3.70;99.90;;;;;;5034235;28;20438;-79
2022/02/26 08:06:58;;;;;;;5.67;1.13;;;3.70;99.90;;;;;;5033815;28;20981;-79
2022/02/26 08:09:24;;;;;;;0.60;0.50;;;3.80;99.90;;;;;;5034064;28;20474;-79
2022/02/26 08:11:52;;;;;;;0.30;0.30;;;3.80;99.90;;;;;;5034035;28;20450;-79
2022/02/26 08:14:19;;;;;;;0.57;0.57;;;3.90;99.90;;;;;;5033736;28;20791;-79
2022/02/26 08:16:46;;;;;;;1.13;0.70;;;3.90;99.90;;;;;;5033952;28;20446;-79
2022/02/26 08:19:13;;;;;;;0.40;0.40;;;3.90;99.90;;;;;;5033836;28;20482;-79
2022/02/26 08:21:39;;;;;;;0.30;0.30;;;3.90;99.90;;;;;;5033936;28;20478;-79
2022/02/26 08:24:08;;;;;;;0.30;0.20;;;4.00;99.90;;;;;;5033622;28;20457;-78
2022/02/26 08:26:35;;;;;;;0.43;0.43;;;4.00;99.90;;;;;;5033474;28;20946;-79
2022/02/26 08:29:02;;;;;;;0.30;0.20;;;4.20;99.90;;;;;;5033404;28;21000;-79
2022/02/26 08:31:28;;;;;;;0.50;0.50;;;4.40;99.90;;;;;;5033518;28;20467;-79
2022/02/26 08:33:55;;;;;;;0.67;0.63;;;4.40;99.90;;;;;;5033682;28;20450;-79
2022/02/26 08:36:22;;;;;;;0.40;0.40;;;4.40;99.90;;;;;;5033644;28;20490;-79
2022/02/26 08:38:50;;;;;;;0.30;0.30;;;4.30;99.90;;;;;;5033195;28;20474;-79
2022/02/26 08:41:18;;;;;;;0.30;0.27;;;4.30;99.90;;;;;;5033594;28;20447;-79
2022/02/26 08:43:45;;;;;;;0.50;0.50;;;4.40;99.90;;;;;;5033157;28;20450;-79
2022/02/26 08:46:12;;;;;;;0.63;0.63;;;4.40;99.90;;;;;;5033520;28;20450;-79
2022/02/26 08:48:39;;;;;;;0.30;0.27;;;4.40;99.90;;;;;;5033297;28;20494;-79
2022/02/26 08:51:06;;;;;;;0.40;0.40;;;4.50;99.90;;;;;;5033732;28;20437;-79
2022/02/26 08:53:33;;;;;;;0.40;0.40;;;4.50;99.90;;;;;;5033403;28;20450;-79
2022/02/26 08:56:00;;;;;;;0.30;0.20;;;4.60;99.90;;;;;;5033660;28;20439;-79
2022/02/26 08:58:28;;;;;;;0.30;0.20;;;4.80;99.90;;;;;;5033310;28;20467;-79
2022/02/26 09:00:55;;;;;;;0.30;0.30;;;4.90;99.90;;;;;;5033545;28;20439;-79
2022/02/26 09:03:22;;;;;;;0.30;0.23;;;5.10;99.90;;;;;;5033325;28;20450;-79
2022/02/26 09:05:50;;;;;;;0.40;0.40;;;5.30;99.90;;;;;;5033269;28;20458;-79
2022/02/26 09:08:17;;;;;;;1.27;0.57;;;5.50;99.90;;;;;;5032807;28;20993;-79
2022/02/26 09:10:44;;;;;;;0.30;0.20;;;5.70;99.90;;;;;;5033500;28;20443;-79
2022/02/26 09:13:10;;;;;;;0.30;0.20;;;5.80;99.90;;;;;;5033232;28;20435;-79
2022/02/26 09:15:38;;;;;;;0.70;0.63;;;5.90;99.90;;;;;;5032898;28;20450;-79
2022/02/26 09:18:05;;;;;;;0.30;0.20;;;6.50;99.90;;;;;;5033078;28;20849;-79
2022/02/26 09:20:32;;;;;;;0.30;0.20;;;7.40;99.90;;;;;;5032818;28;21127;-79
2022/02/26 09:22:59;;;;;;;0.30;0.20;;;8.10;99.90;;;;;;5032816;28;20973;-79
2022/02/26 09:25:26;;;;;;;0.30;0.27;;;8.10;99.90;;;;;;5033142;28;20461;-79
2022/02/26 09:27:52;;;;;;;0.40;0.30;;;7.80;99.90;;;;;;5032961;28;20489;-79
2022/02/26 09:30:19;;;;;;;0.30;0.23;;;7.50;99.90;;;;;;5032927;28;20459;-79
2022/02/26 09:32:47;;;;;;;0.30;0.20;;;7.00;99.90;;;;;;5032877;28;20482;-79
2022/02/26 09:35:14;;;;;;;0.30;0.20;;;6.60;99.90;;;;;;5032757;28;20497;-79
2022/02/26 09:37:41;;;;;;;0.30;0.20;;;6.30;99.90;;;;;;5032974;28;20462;-79
2022/02/26 09:40:09;;;;;;;0.30;0.30;;;6.20;99.90;;;;;;5032983;28;20446;-79
2022/02/26 09:42:36;;;;;;;0.40;0.30;;;6.00;99.90;;;;;;5032966;28;20439;-79
2022/02/26 09:45:04;;;;;;;0.30;0.30;;;5.80;99.90;;;;;;5032979;28;20439;-79
2022/02/26 09:47:31;;;;;;;0.30;0.20;;;5.50;99.90;;;;;;5032845;28;20499;-79
2022/02/26 09:49:59;;;;;;;0.30;0.20;;;5.60;99.90;;;;;;5033019;28;20827;-79
2022/02/26 09:52:29;;;;;;;0.30;0.20;;;5.90;99.90;;;;;;5036655;28;20442;-79
2022/02/26 09:54:56;;;;;;;0.30;0.20;;;6.10;98.70;;;;;;5036419;28;20853;-79
2022/02/26 09:57:26;;;;;;;0.30;0.20;;;6.20;97.70;;;;;;5036494;28;20532;-79
2022/02/26 09:59:53;;;;;;;0.40;0.40;;;5.90;98.60;;;;;;5036561;28;20446;-79
2022/02/26 10:02:31;;;;;;;0.50;0.30;;;5.70;98.50;;;;;;5036504;28;20444;-79
2022/02/26 10:05:00;;;;;;;0.30;0.20;;;5.40;99.70;;;;;;5036268;28;20404;-79
2022/02/26 10:07:28;;;;;;;0.30;0.30;;;5.20;99.90;;;;;;5036205;28;20486;-79
2022/02/26 10:09:56;;;;;;;0.30;0.30;;;5.10;99.90;;;;;;5036207;28;20533;-79
2022/02/26 10:12:27;;;;;;;0.30;0.30;;;5.10;99.90;;;;;;5036277;28;20511;-80
2022/02/26 10:14:55;;;;;;;0.30;0.20;;;5.00;99.90;;;;;;5036144;28;20450;-79
2022/02/26 10:17:31;;;;;;;0.30;0.20;;;5.00;99.90;;;;;;5036175;28;20472;-79
2022/02/26 10:20:09;;;;;;;0.30;0.30;;;5.00;99.90;;;;;;5036245;28;20419;-79
2022/02/26 10:22:38;;;;;;;0.30;0.30;;;5.20;99.90;;;;;;5036145;28;20439;-79
2022/02/26 10:25:07;;;;;;;0.67;0.67;;;5.40;99.90;;;;;;5036215;28;20793;-79
2022/02/26 10:27:33;;;;;;;0.30;0.30;;;5.60;99.90;;;;;;5035664;28;20509;-79
2022/02/26 10:30:00;;;;;;;0.30;0.20;;;5.50;99.90;;;;;;5036531;28;20442;-79
2022/02/26 10:32:27;;;;;;;0.30;0.20;;;5.40;99.90;;;;;;5035738;28;20463;-78
2022/02/26 10:34:55;;;;;;;0.30;0.20;;;5.30;99.90;;;;;;5035925;28;20427;-79
2022/02/26 10:37:23;;;;;;;0.40;0.30;;;5.20;99.90;;;;;;5035851;28;21002;-79
2022/02/26 10:39:51;;;;;;;0.30;0.20;;;5.20;99.90;;;;;;5035557;28;20906;-78
2022/02/26 10:42:21;;;;;;;0.30;0.30;;;5.30;99.90;;;;;;5035568;28;20751;-78
2022/02/26 10:45:01;;;;;;;0.30;0.20;;;5.40;99.90;;;;;;5036118;28;20412;-79
2022/02/26 10:47:29;;;;;;;0.50;0.40;;;5.80;99.90;;;;;;5035335;28;20478;-80
2022/02/26 10:49:57;;;;;;;0.30;0.20;;;5.90;99.90;;;;;;5035743;28;20439;-80
2022/02/26 10:52:30;;;;;;;0.30;0.20;;;5.90;98.20;;;;;;5035313;28;20442;-80
2022/02/26 10:55:00;;;;;;;0.60;0.60;;;6.00;98.10;;;;;;5035288;28;20923;-80
2022/02/26 10:57:32;;;;;;;0.30;0.20;;;5.80;98.10;;;;;;5035393;28;20909;-80
2022/02/26 10:59:59;;;;;;;0.30;0.20;;;5.40;98.70;;;;;;5035456;28;20443;-79
2022/02/26 11:02:26;;;;;;;0.50;0.30;;;5.20;99.20;;;;;;5034078;28;20435;-80
2022/02/26 11:04:54;;;;;;;0.30;0.20;;;5.10;99.90;;;;;;5035681;28;20441;-80
2022/02/26 11:07:22;;;;;;;0.30;0.30;;;5.40;99.90;;;;;;5034925;28;20466;-79
2022/02/26 11:09:52;;;;;;;0.30;0.20;;;5.50;99.10;;;;;;5034953;28;20901;-79
2022/02/26 11:12:24;;;;;;;0.30;0.30;;;5.40;99.50;;;;;;5035556;28;20435;-79
2022/02/26 11:14:57;;;;;;;0.30;0.20;;;5.60;99.90;;;;;;5034929;28;20435;-80
2022/02/26 11:17:25;;;;;;;0.30;0.20;;;6.00;99.90;;;;;;5034967;28;20526;-80
2022/02/26 11:19:57;;;;;;;0.40;0.30;;;6.40;99.90;;;;;;5035130;28;20447;-80
2022/02/26 11:22:25;;;;;;;0.30;0.20;;;6.60;96.70;;;;;;5035231;28;20469;-80
2022/02/26 11:24:55;;;;;;;0.47;0.47;;;6.60;96.00;;;;;;5035012;28;20948;-80
2022/02/26 11:27:22;;;;;;;0.30;0.30;;;6.60;94.60;;;;;;5034956;28;20482;-79
2022/02/26 11:29:50;;;;;;;0.30;0.30;;;6.60;94.60;;;;;;5035355;28;20461;-80
2022/02/26 11:32:20;;;;;;;0.30;0.20;;;6.80;95.00;;;;;;5034833;28;20489;-80
2022/02/26 11:34:48;;;;;;;0.30;0.30;;;7.00;94.10;;;;;;5034842;28;20493;-80
2022/02/26 11:37:17;;;;;;;0.30;0.20;;;7.30;93.50;;;;;;5034631;28;20450;-80
2022/02/26 11:39:46;;;;;;;0.30;0.20;;;7.30;92.80;;;;;;5034706;28;20450;-80
2022/02/26 11:42:40;;;;;;;0.30;0.20;;;7.40;93.30;;;;;;5034721;28;20474;-80
2022/02/26 11:45:10;;;;;;;0.40;0.30;;;7.50;92.40;;;;;;5034897;28;20442;-79
2022/02/26 11:47:43;;;;;;;0.37;0.27;;;7.70;91.60;;;;;;5034595;28;20471;-79
2022/02/26 11:50:14;;;;;;;0.50;0.30;;;7.50;90.00;;;;;;5034197;28;20445;-79
2022/02/26 11:52:49;;;;;;;0.40;0.30;;;7.30;90.80;;;;;;5034967;28;20461;-80
2022/02/26 11:55:41;;;;;;;0.30;0.30;;;7.30;90.50;;;;;;5034627;28;20439;-81
2022/02/26 11:58:13;;;;;;;0.30;0.20;;;7.30;90.10;;;;;;5034870;28;20780;-80
2022/02/26 12:00:42;;;;;;;0.30;0.20;;;7.30;87.80;;;;;;5034325;28;20437;-81
2022/02/26 12:03:33;;;;;;;0.30;0.30;;;7.10;90.40;;;;;;5034533;28;20451;-80
2022/02/26 12:06:31;;;;;;;0.30;0.30;;;6.90;90.30;;;;;;5033974;28;20974;-81
2022/02/26 12:09:01;;;;;;;0.30;0.20;;;6.60;90.50;;;;;;5034011;28;20494;-80
2022/02/26 12:11:37;;;;;;;0.30;0.30;;;6.20;91.40;;;;;;5035169;28;20450;-80
2022/02/26 12:14:07;;;;;;;0.73;0.73;;;6.00;91.20;;;;;;5033601;28;20480;-80
2022/02/26 12:16:36;;;;;;;0.30;0.20;;;6.00;91.10;;;;;;5034045;28;20438;-80
2022/02/26 12:19:06;;;;;;;0.30;0.20;;;5.90;91.30;;;;;;5033894;28;20471;-80
2022/02/26 12:21:35;;;;;;;0.70;0.47;;;5.80;90.30;;;;;;5034216;28;20446;-80
2022/02/26 12:24:17;;;;;;;0.50;0.47;;;5.80;90.50;;;;;;5034007;28;20811;-81
2022/02/26 12:26:53;;;;;;;0.30;0.20;;;5.80;90.10;;;;;;5033909;28;20434;-81
2022/02/26 12:29:31;;;;;;;1.00;0.50;;;5.80;90.00;;;;;;5033668;28;20493;-81
2022/02/26 12:32:00;;;;;;;0.30;0.20;;;6.00;88.60;;;;;;5033467;28;20482;-80
2022/02/26 12:34:29;;;;;;;0.30;0.27;;;6.00;89.50;;;;;;5033503;28;20451;-80
2022/02/26 12:37:18;;;;;;;0.30;0.23;;;6.10;90.30;;;;;;5033704;28;20453;-80
2022/02/26 12:39:47;;;;;;;0.30;0.20;;;6.30;89.90;;;;;;5033374;28;20906;-80
2022/02/26 12:42:20;;;;;;;0.60;0.40;;;6.60;88.60;;;;;;5033688;28;20485;-80
2022/02/26 12:44:50;;;;;;;0.30;0.30;;;6.60;87.80;;;;;;5034121;28;20446;-81
2022/02/26 12:47:17;;;;;;;0.30;0.20;;;6.70;88.40;;;;;;5033279;28;20965;-81
2022/02/26 12:49:45;;;;;;;0.70;0.70;;;6.70;88.00;;;;;;5033482;28;20477;-80
2022/02/26 12:52:13;;;;;;;0.30;0.20;;;6.60;88.90;;;;;;5033471;28;20434;-80
2022/02/26 12:54:40;;;;;;;0.30;0.20;;;6.60;88.90;;;;;;5033432;28;20447;-82
2022/02/26 12:57:08;;;;;;;0.30;0.30;;;6.60;88.00;;;;;;5033018;28;20457;-80
2022/02/26 12:59:35;;;;;;;0.30;0.30;;;6.50;87.20;;;;;;5033639;28;20443;-80
2022/02/26 13:02:05;;;;;;;2.53;2.33;;;6.50;88.20;;;;;;5033600;28;20443;-80
2022/02/26 13:04:34;;;;;;;0.40;0.30;;;6.40;88.50;;;;;;5033090;28;20442;-81